sensor_id;sensor_type;location;lat;lon;timestamp;P1;durP1;ratioP1;P2;durP2;ratioP2
35592;SDS011;64447;52.140;5.602;2022-12-11T00:00:02;80.25;;;28.70;;
35592;SDS011;64447;52.140;5.602;2022-12-11T00:02:29;77.30;;;28.40;;
35592;SDS011;64447;52.140;5.602;2022-12-11T00:04:54;83.20;;;28.50;;
35592;SDS011;64447;52.140;5.602;2022-12-11T00:07:20;78.35;;;29.05;;
35592;SDS011;64447;52.140;5.602;2022-12-11T00:09:45;71.07;;;28.17;;
35592;SDS011;64447;52.140;5.602;2022-12-11T00:15:32;85.43;;;28.42;;
35592;SDS011;64447;52.140;5.602;2022-12-11T00:17:58;81.32;;;28.23;;
35592;SDS011;64447;52.140;5.602;2022-12-11T00:20:24;72.85;;;28.35;;
35592;SDS011;64447;52.140;5.602;2022-12-11T00:22:49;78.20;;;29.80;;
35592;SDS011;64447;52.140;5.602;2022-12-11T00:25:15;76.63;;;28.85;;
35592;SDS011;64447;52.140;5.602;2022-12-11T00:31:06;76.90;;;29.63;;
35592;SDS011;64447;52.140;5.602;2022-12-11T00:33:33;81.63;;;29.67;;
35592;SDS011;64447;52.140;5.602;2022-12-11T00:35:59;76.07;;;30.45;;
35592;SDS011;64447;52.140;5.602;2022-12-11T00:38:25;88.85;;;31.73;;
35592;SDS011;64447;52.140;5.602;2022-12-11T00:40:51;83.85;;;30.70;;
35592;SDS011;64447;52.140;5.602;2022-12-11T00:43:17;83.57;;;29.67;;
35592;SDS011;64447;52.140;5.602;2022-12-11T00:45:43;75.47;;;26.92;;
35592;SDS011;64447;52.140;5.602;2022-12-11T00:48:10;75.03;;;29.45;;
35592;SDS011;64447;52.140;5.602;2022-12-11T00:50:36;79.28;;;30.33;;
35592;SDS011;64447;52.140;5.602;2022-12-11T00:53:03;85.88;;;30.23;;
35592;SDS011;64447;52.140;5.602;2022-12-11T00:55:30;78.97;;;29.42;;
35592;SDS011;64447;52.140;5.602;2022-12-11T01:01:18;83.93;;;29.50;;
35592;SDS011;64447;52.140;5.602;2022-12-11T01:03:46;82.68;;;30.05;;
35592;SDS011;64447;52.140;5.602;2022-12-11T01:06:12;90.75;;;30.20;;
35592;SDS011;64447;52.140;5.602;2022-12-11T01:08:40;76.95;;;30.20;;
35592;SDS011;64447;52.140;5.602;2022-12-11T01:11:07;79.80;;;29.25;;
35592;SDS011;64447;52.140;5.602;2022-12-11T01:13:35;79.20;;;30.95;;
35592;SDS011;64447;52.140;5.602;2022-12-11T01:16:08;77.25;;;29.23;;
35592;SDS011;64447;52.140;5.602;2022-12-11T01:18:36;90.30;;;32.05;;
35592;SDS011;64447;52.140;5.602;2022-12-11T01:21:08;85.32;;;30.23;;
35592;SDS011;64447;52.140;5.602;2022-12-11T01:23:35;80.53;;;29.90;;
35592;SDS011;64447;52.140;5.602;2022-12-11T01:26:08;81.18;;;30.77;;
35592;SDS011;64447;52.140;5.602;2022-12-11T01:28:35;72.32;;;28.63;;
35592;SDS011;64447;52.140;5.602;2022-12-11T01:31:01;75.07;;;28.42;;
35592;SDS011;64447;52.140;5.602;2022-12-11T01:33:27;79.63;;;28.13;;
35592;SDS011;64447;52.140;5.602;2022-12-11T01:35:52;77.45;;;27.92;;
35592;SDS011;64447;52.140;5.602;2022-12-11T01:38:18;70.25;;;27.83;;
35592;SDS011;64447;52.140;5.602;2022-12-11T01:40:47;81.20;;;29.75;;
35592;SDS011;64447;52.140;5.602;2022-12-11T01:46:35;77.03;;;29.42;;
35592;SDS011;64447;52.140;5.602;2022-12-11T01:49:02;82.03;;;30.75;;
35592;SDS011;64447;52.140;5.602;2022-12-11T01:51:30;84.80;;;30.60;;
35592;SDS011;64447;52.140;5.602;2022-12-11T01:53:59;82.00;;;29.50;;
35592;SDS011;64447;52.140;5.602;2022-12-11T01:56:30;85.25;;;31.38;;
35592;SDS011;64447;52.140;5.602;2022-12-11T01:58:58;93.03;;;34.17;;
35592;SDS011;64447;52.140;5.602;2022-12-11T02:01:32;87.38;;;31.60;;
35592;SDS011;64447;52.140;5.602;2022-12-11T02:04:02;89.88;;;31.08;;
35592;SDS011;64447;52.140;5.602;2022-12-11T02:06:30;81.65;;;31.33;;
35592;SDS011;64447;52.140;5.602;2022-12-11T02:08:58;88.03;;;30.48;;
35592;SDS011;64447;52.140;5.602;2022-12-11T02:11:25;88.97;;;31.52;;
35592;SDS011;64447;52.140;5.602;2022-12-11T02:14:06;91.15;;;30.63;;
35592;SDS011;64447;52.140;5.602;2022-12-11T02:16:55;94.78;;;32.17;;
35592;SDS011;64447;52.140;5.602;2022-12-11T02:22:10;95.18;;;34.42;;
35592;SDS011;64447;52.140;5.602;2022-12-11T02:27:36;98.63;;;34.00;;
35592;SDS011;64447;52.140;5.602;2022-12-11T02:30:09;86.68;;;31.77;;
35592;SDS011;64447;52.140;5.602;2022-12-11T02:32:49;84.43;;;31.67;;
35592;SDS011;64447;52.140;5.602;2022-12-11T02:35:28;83.07;;;30.60;;
35592;SDS011;64447;52.140;5.602;2022-12-11T02:38:03;88.65;;;31.80;;
35592;SDS011;64447;52.140;5.602;2022-12-11T02:40:34;93.43;;;32.17;;
35592;SDS011;64447;52.140;5.602;2022-12-11T02:43:03;86.55;;;30.27;;
35592;SDS011;64447;52.140;5.602;2022-12-11T02:45:32;90.68;;;30.77;;
35592;SDS011;64447;52.140;5.602;2022-12-11T02:48:00;104.78;;;34.28;;
35592;SDS011;64447;52.140;5.602;2022-12-11T02:50:29;84.60;;;31.60;;
35592;SDS011;64447;52.140;5.602;2022-12-11T02:52:57;86.72;;;31.85;;
35592;SDS011;64447;52.140;5.602;2022-12-11T02:55:28;91.18;;;32.50;;
35592;SDS011;64447;52.140;5.602;2022-12-11T02:58:03;85.72;;;32.00;;
35592;SDS011;64447;52.140;5.602;2022-12-11T03:00:36;90.00;;;32.20;;
35592;SDS011;64447;52.140;5.602;2022-12-11T03:03:01;88.07;;;32.40;;
35592;SDS011;64447;52.140;5.602;2022-12-11T03:05:27;86.05;;;31.40;;
35592;SDS011;64447;52.140;5.602;2022-12-11T03:07:54;87.78;;;32.90;;
35592;SDS011;64447;52.140;5.602;2022-12-11T03:10:20;87.43;;;33.53;;
35592;SDS011;64447;52.140;5.602;2022-12-11T03:12:47;85.35;;;31.27;;
35592;SDS011;64447;52.140;5.602;2022-12-11T03:15:17;80.97;;;30.08;;
35592;SDS011;64447;52.140;5.602;2022-12-11T03:18:05;85.55;;;32.60;;
35592;SDS011;64447;52.140;5.602;2022-12-11T03:20:43;85.60;;;32.28;;
35592;SDS011;64447;52.140;5.602;2022-12-11T03:23:27;78.72;;;32.72;;
35592;SDS011;64447;52.140;5.602;2022-12-11T03:26:00;80.47;;;29.73;;
35592;SDS011;64447;52.140;5.602;2022-12-11T03:31:30;81.97;;;30.75;;
35592;SDS011;64447;52.140;5.602;2022-12-11T03:34:07;80.85;;;31.13;;
35592;SDS011;64447;52.140;5.602;2022-12-11T03:36:38;82.90;;;31.02;;
35592;SDS011;64447;52.140;5.602;2022-12-11T03:39:07;78.35;;;30.77;;
35592;SDS011;64447;52.140;5.602;2022-12-11T03:41:37;75.78;;;30.02;;
35592;SDS011;64447;52.140;5.602;2022-12-11T03:44:05;85.55;;;31.23;;
35592;SDS011;64447;52.140;5.602;2022-12-11T03:46:32;82.10;;;31.83;;
35592;SDS011;64447;52.140;5.602;2022-12-11T03:49:04;80.55;;;32.08;;
35592;SDS011;64447;52.140;5.602;2022-12-11T03:51:35;78.20;;;31.13;;
35592;SDS011;64447;52.140;5.602;2022-12-11T03:54:02;74.55;;;31.05;;
35592;SDS011;64447;52.140;5.602;2022-12-11T03:56:28;70.22;;;29.75;;
35592;SDS011;64447;52.140;5.602;2022-12-11T03:58:56;71.10;;;31.70;;
35592;SDS011;64447;52.140;5.602;2022-12-11T04:01:22;79.47;;;31.65;;
35592;SDS011;64447;52.140;5.602;2022-12-11T04:03:48;77.38;;;30.15;;
35592;SDS011;64447;52.140;5.602;2022-12-11T04:06:13;71.97;;;30.35;;
35592;SDS011;64447;52.140;5.602;2022-12-11T04:08:39;80.25;;;32.03;;
35592;SDS011;64447;52.140;5.602;2022-12-11T04:11:04;76.13;;;31.20;;
35592;SDS011;64447;52.140;5.602;2022-12-11T04:13:49;78.70;;;32.28;;
35592;SDS011;64447;52.140;5.602;2022-12-11T04:16:34;70.95;;;29.92;;
35592;SDS011;64447;52.140;5.602;2022-12-11T04:19:00;73.93;;;31.52;;
35592;SDS011;64447;52.140;5.602;2022-12-11T04:21:44;79.00;;;32.45;;
35592;SDS011;64447;52.140;5.602;2022-12-11T04:24:28;65.20;;;29.60;;
35592;SDS011;64447;52.140;5.602;2022-12-11T04:26:53;66.70;;;30.90;;
35592;SDS011;64447;52.140;5.602;2022-12-11T04:29:19;72.38;;;29.77;;
35592;SDS011;64447;52.140;5.602;2022-12-11T04:31:44;73.35;;;32.20;;
35592;SDS011;64447;52.140;5.602;2022-12-11T04:34:11;69.60;;;29.42;;
35592;SDS011;64447;52.140;5.602;2022-12-11T04:36:36;67.47;;;30.95;;
35592;SDS011;64447;52.140;5.602;2022-12-11T04:39:03;69.80;;;31.30;;
35592;SDS011;64447;52.140;5.602;2022-12-11T04:41:29;62.85;;;29.42;;
35592;SDS011;64447;52.140;5.602;2022-12-11T04:43:55;57.45;;;27.48;;
35592;SDS011;64447;52.140;5.602;2022-12-11T04:46:22;68.88;;;29.00;;
35592;SDS011;64447;52.140;5.602;2022-12-11T04:48:48;64.78;;;28.63;;
35592;SDS011;64447;52.140;5.602;2022-12-11T04:51:14;66.57;;;29.98;;
35592;SDS011;64447;52.140;5.602;2022-12-11T04:53:40;59.30;;;27.65;;
35592;SDS011;64447;52.140;5.602;2022-12-11T04:56:07;63.67;;;29.58;;
35592;SDS011;64447;52.140;5.602;2022-12-11T04:58:34;70.47;;;28.17;;
35592;SDS011;64447;52.140;5.602;2022-12-11T05:01:05;63.22;;;28.35;;
35592;SDS011;64447;52.140;5.602;2022-12-11T05:03:32;66.43;;;30.00;;
35592;SDS011;64447;52.140;5.602;2022-12-11T05:05:58;64.55;;;30.17;;
35592;SDS011;64447;52.140;5.602;2022-12-11T05:08:23;61.05;;;28.00;;
35592;SDS011;64447;52.140;5.602;2022-12-11T05:10:59;62.83;;;29.70;;
35592;SDS011;64447;52.140;5.602;2022-12-11T05:13:29;67.47;;;30.40;;
35592;SDS011;64447;52.140;5.602;2022-12-11T05:15:56;67.07;;;31.35;;
35592;SDS011;64447;52.140;5.602;2022-12-11T05:18:22;63.05;;;30.08;;
35592;SDS011;64447;52.140;5.602;2022-12-11T05:20:55;63.50;;;28.75;;
35592;SDS011;64447;52.140;5.602;2022-12-11T05:23:21;68.57;;;29.83;;
35592;SDS011;64447;52.140;5.602;2022-12-11T05:25:51;64.65;;;28.60;;
35592;SDS011;64447;52.140;5.602;2022-12-11T05:28:18;67.30;;;30.85;;
35592;SDS011;64447;52.140;5.602;2022-12-11T05:30:45;67.93;;;30.05;;
35592;SDS011;64447;52.140;5.602;2022-12-11T05:33:10;67.65;;;30.92;;
35592;SDS011;64447;52.140;5.602;2022-12-11T05:35:36;59.30;;;28.98;;
35592;SDS011;64447;52.140;5.602;2022-12-11T05:38:01;63.45;;;29.77;;
35592;SDS011;64447;52.140;5.602;2022-12-11T05:40:27;55.22;;;27.70;;
35592;SDS011;64447;52.140;5.602;2022-12-11T05:42:52;55.85;;;26.30;;
35592;SDS011;64447;52.140;5.602;2022-12-11T05:48:40;51.08;;;24.02;;
35592;SDS011;64447;52.140;5.602;2022-12-11T05:51:07;44.30;;;21.92;;
35592;SDS011;64447;52.140;5.602;2022-12-11T05:53:34;48.05;;;23.30;;
35592;SDS011;64447;52.140;5.602;2022-12-11T05:56:04;46.20;;;23.60;;
35592;SDS011;64447;52.140;5.602;2022-12-11T05:58:32;47.10;;;24.58;;
35592;SDS011;64447;52.140;5.602;2022-12-11T06:00:59;48.00;;;24.35;;
35592;SDS011;64447;52.140;5.602;2022-12-11T06:03:26;48.47;;;24.25;;
35592;SDS011;64447;52.140;5.602;2022-12-11T06:05:52;53.97;;;25.05;;
35592;SDS011;64447;52.140;5.602;2022-12-11T06:08:17;51.60;;;24.25;;
35592;SDS011;64447;52.140;5.602;2022-12-11T06:10:43;52.78;;;24.42;;
35592;SDS011;64447;52.140;5.602;2022-12-11T06:13:13;50.25;;;23.63;;
35592;SDS011;64447;52.140;5.602;2022-12-11T06:15:39;49.15;;;25.27;;
35592;SDS011;64447;52.140;5.602;2022-12-11T06:18:04;50.10;;;25.25;;
35592;SDS011;64447;52.140;5.602;2022-12-11T06:20:30;49.92;;;25.08;;
35592;SDS011;64447;52.140;5.602;2022-12-11T06:22:57;48.22;;;24.27;;
35592;SDS011;64447;52.140;5.602;2022-12-11T06:25:23;53.42;;;25.00;;
35592;SDS011;64447;52.140;5.602;2022-12-11T06:27:49;53.97;;;25.92;;
35592;SDS011;64447;52.140;5.602;2022-12-11T06:33:50;49.00;;;23.83;;
35592;SDS011;64447;52.140;5.602;2022-12-11T06:36:18;53.13;;;25.85;;
35592;SDS011;64447;52.140;5.602;2022-12-11T06:38:45;58.80;;;28.63;;
35592;SDS011;64447;52.140;5.602;2022-12-11T06:41:11;46.72;;;24.08;;
35592;SDS011;64447;52.140;5.602;2022-12-11T06:43:39;58.05;;;27.15;;
35592;SDS011;64447;52.140;5.602;2022-12-11T06:46:06;55.88;;;25.60;;
35592;SDS011;64447;52.140;5.602;2022-12-11T06:48:33;58.22;;;26.85;;
35592;SDS011;64447;52.140;5.602;2022-12-11T06:50:59;53.70;;;27.02;;
35592;SDS011;64447;52.140;5.602;2022-12-11T06:53:42;54.80;;;26.58;;
35592;SDS011;64447;52.140;5.602;2022-12-11T06:56:09;50.10;;;24.83;;
35592;SDS011;64447;52.140;5.602;2022-12-11T06:58:37;55.55;;;26.35;;
35592;SDS011;64447;52.140;5.602;2022-12-11T07:01:03;53.53;;;25.13;;
35592;SDS011;64447;52.140;5.602;2022-12-11T07:03:36;51.40;;;26.00;;
35592;SDS011;64447;52.140;5.602;2022-12-11T07:06:01;56.08;;;27.63;;
35592;SDS011;64447;52.140;5.602;2022-12-11T07:08:28;55.97;;;27.13;;
35592;SDS011;64447;52.140;5.602;2022-12-11T07:10:53;62.67;;;31.52;;
35592;SDS011;64447;52.140;5.602;2022-12-11T07:13:19;62.40;;;29.77;;
35592;SDS011;64447;52.140;5.602;2022-12-11T07:19:07;63.78;;;30.13;;
35592;SDS011;64447;52.140;5.602;2022-12-11T07:21:32;66.05;;;33.60;;
35592;SDS011;64447;52.140;5.602;2022-12-11T07:23:58;59.50;;;27.00;;
35592;SDS011;64447;52.140;5.602;2022-12-11T07:26:24;60.30;;;29.98;;
35592;SDS011;64447;52.140;5.602;2022-12-11T07:28:50;54.80;;;26.73;;
35592;SDS011;64447;52.140;5.602;2022-12-11T07:31:20;60.45;;;28.85;;
35592;SDS011;64447;52.140;5.602;2022-12-11T07:33:47;57.10;;;29.30;;
35592;SDS011;64447;52.140;5.602;2022-12-11T07:36:16;59.38;;;29.42;;
35592;SDS011;64447;52.140;5.602;2022-12-11T07:38:42;54.42;;;28.92;;
35592;SDS011;64447;52.140;5.602;2022-12-11T07:41:09;55.53;;;28.80;;
35592;SDS011;64447;52.140;5.602;2022-12-11T07:43:36;56.67;;;29.45;;
35592;SDS011;64447;52.140;5.602;2022-12-11T07:49:23;55.00;;;27.67;;
35592;SDS011;64447;52.140;5.602;2022-12-11T07:51:49;54.63;;;27.17;;
35592;SDS011;64447;52.140;5.602;2022-12-11T07:54:15;53.58;;;26.70;;
35592;SDS011;64447;52.140;5.602;2022-12-11T07:56:41;49.35;;;27.42;;
35592;SDS011;64447;52.140;5.602;2022-12-11T07:59:11;49.50;;;27.88;;
35592;SDS011;64447;52.140;5.602;2022-12-11T08:01:37;49.17;;;27.30;;
35592;SDS011;64447;52.140;5.602;2022-12-11T08:04:04;51.22;;;27.30;;
35592;SDS011;64447;52.140;5.602;2022-12-11T08:06:32;57.00;;;28.83;;
35592;SDS011;64447;52.140;5.602;2022-12-11T08:09:00;53.00;;;28.50;;
35592;SDS011;64447;52.140;5.602;2022-12-11T08:11:28;56.17;;;29.38;;
35592;SDS011;64447;52.140;5.602;2022-12-11T08:13:54;58.25;;;29.02;;
35592;SDS011;64447;52.140;5.602;2022-12-11T08:19:41;60.33;;;29.35;;
35592;SDS011;64447;52.140;5.602;2022-12-11T08:22:07;57.72;;;29.02;;
35592;SDS011;64447;52.140;5.602;2022-12-11T08:24:32;59.35;;;30.00;;
35592;SDS011;64447;52.140;5.602;2022-12-11T08:26:58;55.47;;;29.30;;
35592;SDS011;64447;52.140;5.602;2022-12-11T08:29:24;57.15;;;28.48;;
35592;SDS011;64447;52.140;5.602;2022-12-11T08:31:50;52.88;;;27.90;;
35592;SDS011;64447;52.140;5.602;2022-12-11T08:34:15;50.08;;;26.85;;
35592;SDS011;64447;52.140;5.602;2022-12-11T08:36:41;53.60;;;27.85;;
35592;SDS011;64447;52.140;5.602;2022-12-11T08:39:07;48.40;;;25.27;;
35592;SDS011;64447;52.140;5.602;2022-12-11T08:41:33;46.45;;;23.70;;
35592;SDS011;64447;52.140;5.602;2022-12-11T08:43:59;49.50;;;25.02;;
35592;SDS011;64447;52.140;5.602;2022-12-11T08:49:47;43.35;;;22.77;;
35592;SDS011;64447;52.140;5.602;2022-12-11T08:52:13;43.47;;;23.17;;
35592;SDS011;64447;52.140;5.602;2022-12-11T08:54:38;47.05;;;23.55;;
35592;SDS011;64447;52.140;5.602;2022-12-11T08:57:04;43.95;;;22.30;;
35592;SDS011;64447;52.140;5.602;2022-12-11T08:59:29;43.20;;;22.88;;
35592;SDS011;64447;52.140;5.602;2022-12-11T09:01:55;42.00;;;22.10;;
35592;SDS011;64447;52.140;5.602;2022-12-11T09:04:21;45.88;;;23.27;;
35592;SDS011;64447;52.140;5.602;2022-12-11T09:06:47;39.20;;;21.63;;
35592;SDS011;64447;52.140;5.602;2022-12-11T09:09:13;40.42;;;21.25;;
35592;SDS011;64447;52.140;5.602;2022-12-11T09:11:39;42.15;;;21.73;;
35592;SDS011;64447;52.140;5.602;2022-12-11T09:14:05;45.33;;;24.15;;
35592;SDS011;64447;52.140;5.602;2022-12-11T09:19:53;43.20;;;21.35;;
35592;SDS011;64447;52.140;5.602;2022-12-11T09:22:18;38.53;;;20.52;;
35592;SDS011;64447;52.140;5.602;2022-12-11T09:24:44;37.03;;;19.65;;
35592;SDS011;64447;52.140;5.602;2022-12-11T09:27:10;37.60;;;20.80;;
35592;SDS011;64447;52.140;5.602;2022-12-11T09:29:36;40.72;;;22.20;;
35592;SDS011;64447;52.140;5.602;2022-12-11T09:36:10;34.35;;;19.33;;
35592;SDS011;64447;52.140;5.602;2022-12-11T09:38:36;36.20;;;19.95;;
35592;SDS011;64447;52.140;5.602;2022-12-11T09:41:10;37.75;;;19.70;;
35592;SDS011;64447;52.140;5.602;2022-12-11T09:43:58;38.90;;;19.75;;
35592;SDS011;64447;52.140;5.602;2022-12-11T09:46:28;35.58;;;18.48;;
35592;SDS011;64447;52.140;5.602;2022-12-11T09:48:56;38.40;;;20.90;;
35592;SDS011;64447;52.140;5.602;2022-12-11T09:51:26;36.80;;;18.83;;
35592;SDS011;64447;52.140;5.602;2022-12-11T09:54:03;36.08;;;18.27;;
35592;SDS011;64447;52.140;5.602;2022-12-11T09:56:33;35.15;;;18.58;;
35592;SDS011;64447;52.140;5.602;2022-12-11T09:59:13;34.72;;;17.80;;
35592;SDS011;64447;52.140;5.602;2022-12-11T10:04:27;35.03;;;18.73;;
35592;SDS011;64447;52.140;5.602;2022-12-11T10:07:03;40.75;;;22.10;;
35592;SDS011;64447;52.140;5.602;2022-12-11T10:18:27;39.85;;;20.98;;
35592;SDS011;64447;52.140;5.602;2022-12-11T10:20:55;32.35;;;18.45;;
35592;SDS011;64447;52.140;5.602;2022-12-11T10:23:23;34.25;;;18.90;;
35592;SDS011;64447;52.140;5.602;2022-12-11T10:26:03;37.25;;;19.70;;
35592;SDS011;64447;52.140;5.602;2022-12-11T10:28:32;37.53;;;19.58;;
35592;SDS011;64447;52.140;5.602;2022-12-11T10:37:00;39.72;;;21.50;;
35592;SDS011;64447;52.140;5.602;2022-12-11T10:39:26;35.83;;;20.73;;
35592;SDS011;64447;52.140;5.602;2022-12-11T10:41:53;38.22;;;19.63;;
35592;SDS011;64447;52.140;5.602;2022-12-11T10:44:21;39.58;;;19.25;;
35592;SDS011;64447;52.140;5.602;2022-12-11T10:50:20;35.30;;;18.88;;
35592;SDS011;64447;52.140;5.602;2022-12-11T10:52:47;35.58;;;19.10;;
35592;SDS011;64447;52.140;5.602;2022-12-11T10:55:18;35.25;;;18.85;;
35592;SDS011;64447;52.140;5.602;2022-12-11T10:58:02;30.42;;;17.33;;
35592;SDS011;64447;52.140;5.602;2022-12-11T11:03:03;37.75;;;19.85;;
35592;SDS011;64447;52.140;5.602;2022-12-11T11:05:32;32.97;;;18.40;;
35592;SDS011;64447;52.140;5.602;2022-12-11T11:08:16;36.15;;;19.40;;
35592;SDS011;64447;52.140;5.602;2022-12-11T11:13:15;35.00;;;18.65;;
35592;SDS011;64447;52.140;5.602;2022-12-11T11:15:40;40.90;;;20.52;;
35592;SDS011;64447;52.140;5.602;2022-12-11T11:18:10;33.85;;;18.27;;
35592;SDS011;64447;52.140;5.602;2022-12-11T11:20:46;33.70;;;17.83;;
35592;SDS011;64447;52.140;5.602;2022-12-11T11:23:13;34.47;;;18.42;;
35592;SDS011;64447;52.140;5.602;2022-12-11T11:25:47;35.47;;;19.40;;
35592;SDS011;64447;52.140;5.602;2022-12-11T11:28:27;35.50;;;18.40;;
35592;SDS011;64447;52.140;5.602;2022-12-11T11:33:26;37.05;;;18.67;;
35592;SDS011;64447;52.140;5.602;2022-12-11T11:36:00;35.40;;;19.00;;
35592;SDS011;64447;52.140;5.602;2022-12-11T11:41:23;33.50;;;18.35;;
35592;SDS011;64447;52.140;5.602;2022-12-11T11:44:07;33.58;;;19.40;;
35592;SDS011;64447;52.140;5.602;2022-12-11T11:46:43;33.70;;;18.48;;
35592;SDS011;64447;52.140;5.602;2022-12-11T11:51:53;30.50;;;17.17;;
35592;SDS011;64447;52.140;5.602;2022-12-11T11:56:50;33.42;;;18.35;;
35592;SDS011;64447;52.140;5.602;2022-12-11T12:01:55;31.83;;;17.55;;
35592;SDS011;64447;52.140;5.602;2022-12-11T12:04:21;30.67;;;16.42;;
35592;SDS011;64447;52.140;5.602;2022-12-11T12:12:37;40.95;;;19.77;;
35592;SDS011;64447;52.140;5.602;2022-12-11T12:23:50;34.97;;;18.27;;
35592;SDS011;64447;52.140;5.602;2022-12-11T12:26:47;33.95;;;18.60;;
35592;SDS011;64447;52.140;5.602;2022-12-11T12:45:52;38.92;;;21.33;;
35592;SDS011;64447;52.140;5.602;2022-12-11T12:48:30;41.20;;;21.05;;
35592;SDS011;64447;52.140;5.602;2022-12-11T12:50:56;34.15;;;18.83;;
35592;SDS011;64447;52.140;5.602;2022-12-11T12:53:23;39.90;;;20.35;;
35592;SDS011;64447;52.140;5.602;2022-12-11T12:55:51;39.30;;;19.40;;
35592;SDS011;64447;52.140;5.602;2022-12-11T12:58:25;38.97;;;20.98;;
35592;SDS011;64447;52.140;5.602;2022-12-11T13:01:06;43.50;;;22.50;;
35592;SDS011;64447;52.140;5.602;2022-12-11T13:04:22;38.22;;;20.38;;
35592;SDS011;64447;52.140;5.602;2022-12-11T13:07:11;36.85;;;19.55;;
35592;SDS011;64447;52.140;5.602;2022-12-11T13:09:42;41.03;;;21.77;;
35592;SDS011;64447;52.140;5.602;2022-12-11T13:12:20;35.65;;;19.42;;
35592;SDS011;64447;52.140;5.602;2022-12-11T13:15:03;36.05;;;18.75;;
35592;SDS011;64447;52.140;5.602;2022-12-11T13:20:51;34.67;;;19.58;;
35592;SDS011;64447;52.140;5.602;2022-12-11T13:25:51;43.03;;;23.33;;
35592;SDS011;64447;52.140;5.602;2022-12-11T13:29:04;40.28;;;21.95;;
35592;SDS011;64447;52.140;5.602;2022-12-11T13:37:04;39.00;;;20.00;;
35592;SDS011;64447;52.140;5.602;2022-12-11T13:39:33;34.58;;;19.10;;
35592;SDS011;64447;52.140;5.602;2022-12-11T13:42:03;33.83;;;19.15;;
35592;SDS011;64447;52.140;5.602;2022-12-11T13:44:49;40.67;;;22.58;;
35592;SDS011;64447;52.140;5.602;2022-12-11T13:47:16;39.05;;;21.73;;
35592;SDS011;64447;52.140;5.602;2022-12-11T13:49:44;40.10;;;20.77;;
35592;SDS011;64447;52.140;5.602;2022-12-11T13:52:16;37.60;;;18.48;;
35592;SDS011;64447;52.140;5.602;2022-12-11T13:54:51;38.53;;;20.10;;
35592;SDS011;64447;52.140;5.602;2022-12-11T13:57:20;36.58;;;19.38;;
35592;SDS011;64447;52.140;5.602;2022-12-11T13:59:48;35.03;;;20.08;;
35592;SDS011;64447;52.140;5.602;2022-12-11T14:05:00;33.47;;;19.38;;
35592;SDS011;64447;52.140;5.602;2022-12-11T14:07:29;36.72;;;20.45;;
35592;SDS011;64447;52.140;5.602;2022-12-11T14:10:08;40.83;;;21.73;;
35592;SDS011;64447;52.140;5.602;2022-12-11T14:12:52;34.28;;;20.27;;
35592;SDS011;64447;52.140;5.602;2022-12-11T14:15:23;40.08;;;22.48;;
35592;SDS011;64447;52.140;5.602;2022-12-11T14:17:50;43.30;;;23.25;;
35592;SDS011;64447;52.140;5.602;2022-12-11T14:20:20;37.83;;;21.63;;
35592;SDS011;64447;52.140;5.602;2022-12-11T14:22:48;45.13;;;22.10;;
35592;SDS011;64447;52.140;5.602;2022-12-11T14:25:21;40.17;;;20.80;;
35592;SDS011;64447;52.140;5.602;2022-12-11T14:27:50;37.00;;;20.85;;
35592;SDS011;64447;52.140;5.602;2022-12-11T14:30:21;44.40;;;20.80;;
35592;SDS011;64447;52.140;5.602;2022-12-11T14:32:49;41.25;;;22.52;;
35592;SDS011;64447;52.140;5.602;2022-12-11T14:35:22;42.30;;;21.88;;
35592;SDS011;64447;52.140;5.602;2022-12-11T14:38:00;41.60;;;20.98;;
35592;SDS011;64447;52.140;5.602;2022-12-11T14:40:35;39.53;;;22.05;;
35592;SDS011;64447;52.140;5.602;2022-12-11T14:43:13;42.92;;;22.10;;
35592;SDS011;64447;52.140;5.602;2022-12-11T14:45:45;37.53;;;21.30;;
35592;SDS011;64447;52.140;5.602;2022-12-11T14:48:18;41.42;;;22.88;;
35592;SDS011;64447;52.140;5.602;2022-12-11T14:50:48;42.80;;;22.33;;
35592;SDS011;64447;52.140;5.602;2022-12-11T14:53:22;43.50;;;23.33;;
35592;SDS011;64447;52.140;5.602;2022-12-11T14:55:51;43.67;;;22.25;;
35592;SDS011;64447;52.140;5.602;2022-12-11T14:58:19;38.00;;;21.95;;
35592;SDS011;64447;52.140;5.602;2022-12-11T15:03:29;44.97;;;22.67;;
35592;SDS011;64447;52.140;5.602;2022-12-11T15:06:17;38.90;;;20.58;;
35592;SDS011;64447;52.140;5.602;2022-12-11T15:11:49;46.22;;;22.83;;
35592;SDS011;64447;52.140;5.602;2022-12-11T15:14:16;44.67;;;22.90;;
35592;SDS011;64447;52.140;5.602;2022-12-11T15:16:43;46.30;;;23.85;;
35592;SDS011;64447;52.140;5.602;2022-12-11T15:22:00;39.17;;;21.15;;
35592;SDS011;64447;52.140;5.602;2022-12-11T15:24:34;41.90;;;22.63;;
35592;SDS011;64447;52.140;5.602;2022-12-11T15:27:02;45.13;;;23.05;;
35592;SDS011;64447;52.140;5.602;2022-12-11T15:32:03;42.22;;;22.13;;
35592;SDS011;64447;52.140;5.602;2022-12-11T15:34:50;45.22;;;25.42;;
35592;SDS011;64447;52.140;5.602;2022-12-11T15:37:27;42.53;;;23.10;;
35592;SDS011;64447;52.140;5.602;2022-12-11T15:39:55;40.53;;;22.05;;
35592;SDS011;64447;52.140;5.602;2022-12-11T15:44:54;44.08;;;23.45;;
35592;SDS011;64447;52.140;5.602;2022-12-11T15:47:22;44.30;;;22.92;;
35592;SDS011;64447;52.140;5.602;2022-12-11T15:49:49;40.15;;;21.58;;
35592;SDS011;64447;52.140;5.602;2022-12-11T15:52:20;38.10;;;22.10;;
35592;SDS011;64447;52.140;5.602;2022-12-11T15:54:45;40.53;;;21.52;;
35592;SDS011;64447;52.140;5.602;2022-12-11T15:57:11;47.58;;;24.98;;
35592;SDS011;64447;52.140;5.602;2022-12-11T15:59:40;46.03;;;24.50;;
35592;SDS011;64447;52.140;5.602;2022-12-11T16:02:12;48.00;;;25.08;;
35592;SDS011;64447;52.140;5.602;2022-12-11T16:04:38;48.03;;;24.50;;
35592;SDS011;64447;52.140;5.602;2022-12-11T16:07:05;49.83;;;25.50;;
35592;SDS011;64447;52.140;5.602;2022-12-11T16:09:37;45.97;;;23.23;;
35592;SDS011;64447;52.140;5.602;2022-12-11T16:12:02;45.28;;;24.30;;
35592;SDS011;64447;52.140;5.602;2022-12-11T16:14:28;51.47;;;25.58;;
35592;SDS011;64447;52.140;5.602;2022-12-11T16:16:53;50.10;;;25.23;;
35592;SDS011;64447;52.140;5.602;2022-12-11T16:19:19;49.22;;;25.90;;
35592;SDS011;64447;52.140;5.602;2022-12-11T16:21:44;44.05;;;24.65;;
35592;SDS011;64447;52.140;5.602;2022-12-11T16:24:10;44.97;;;24.42;;
35592;SDS011;64447;52.140;5.602;2022-12-11T16:26:36;44.45;;;25.65;;
35592;SDS011;64447;52.140;5.602;2022-12-11T16:29:01;45.80;;;25.17;;
35592;SDS011;64447;52.140;5.602;2022-12-11T16:31:27;41.55;;;23.63;;
35592;SDS011;64447;52.140;5.602;2022-12-11T16:33:53;43.83;;;23.92;;
35592;SDS011;64447;52.140;5.602;2022-12-11T16:36:18;42.33;;;24.52;;
35592;SDS011;64447;52.140;5.602;2022-12-11T16:38:45;40.88;;;22.52;;
35592;SDS011;64447;52.140;5.602;2022-12-11T16:41:12;42.85;;;22.63;;
35592;SDS011;64447;52.140;5.602;2022-12-11T16:43:37;40.17;;;20.95;;
35592;SDS011;64447;52.140;5.602;2022-12-11T16:46:03;42.30;;;23.65;;
35592;SDS011;64447;52.140;5.602;2022-12-11T16:48:29;41.65;;;22.00;;
35592;SDS011;64447;52.140;5.602;2022-12-11T16:50:55;42.47;;;21.58;;
35592;SDS011;64447;52.140;5.602;2022-12-11T16:53:21;39.97;;;22.15;;
35592;SDS011;64447;52.140;5.602;2022-12-11T16:55:47;41.53;;;21.67;;
35592;SDS011;64447;52.140;5.602;2022-12-11T16:58:13;39.17;;;22.70;;
35592;SDS011;64447;52.140;5.602;2022-12-11T17:00:44;43.13;;;23.80;;